Battletown, Kentucky
Current Conditions -  °F | °C
As of 7:58 AM on Thursday 30 Oct 2014 (Local Time) from KFTK Reporting Station
Clear Clear  
Wind Chill: 33°   Ceiling: Unl
Heat Index: 33°   Visibility: 10mi
Dew Point: 32°   Wind: 2mph
Humidity: 95%   Direction: 350°N
Pressure: 30.16"   Gusts: NA
Location:  38.06°N, 86.29°W
Report Text: KFTK 301158Z AUTO 35002KT 10SM CLR 01/00 A3016 RMK AO2 SLP220 T00080001 10050 20005 53007
Loading
Personal Weather Stations






























Interactive Weather Map
Tropical Storm Tracking
New forecast layout! Learn more

10-Day Weather Forecast

Advertisements
Track Severe Weather on mobile